Calvert City, KY

11:01 AM CDT on August 27, 2016 (GMT -0500)
Calvert City | | Change Station

Elev 364 ft 37.02 °N, 88.33 °W | Updated 1 second ago

Scattered Clouds
Scattered Clouds
84.7 °F
Feels Like 96 °F
N
2.2
Wind Variable Wind from NE
Gusts 3.8 mph

Today
High -- | Low -- °F
--% Chance of Precip.
Yesterday
High -- | Low -- °F
Precip. -- in
Pressure 30.12 in
Visibility 10.0 miles
Clouds Scattered Clouds 1900 ft
Heat Index 96 °F
Dew Point 78 °F
Humidity 79%
Rainfall 0.04 in
Snow Depth Not available.
6:20 AM 7:28 PM
Waning Crescent, 23% visible
METAR KM25 271555Z AUTO 00000KT 10SM SCT019 27/23 A3012 RMK AO2 PWINO
Pressure 30.12 in
Visibility 10.0 miles
Clouds Scattered Clouds 1900 ft
Heat Index 96 °F
Dew Point 78 °F
Humidity 79%
Rainfall 0.04 in
Snow Depth Not available.
6:20 AM 7:28 PM
Waning Crescent, 23% visible
METAR KM25 271555Z AUTO 00000KT 10SM SCT019 27/23 A3012 RMK AO2 PWINO

10-Day Weather Forecast

Almanac

Astronomy

Aug. 27, 2016 Rise Set
Actual Time
Civil Twilight
Nautical Twilight
Astronomical Twilight
Moon
Length of Visible Light
Length of Day
Tomorrow will be .
, % of the Moon is Illuminated

Today's Extremes

State Highs State Lows

Community

WunderPhotos

Upload Photos

1,935,373 photos uploaded!

WunderBlog® & News

Nearby

Air Quality

  Air Quality AQ Index Pollutant
Not available.

Snow Depth

Station Depth Elevation

Earthquake Activity

City Distance Mag. Time & Date
Minimum magnitude displayed is 2.5.

Coastal Water Temperatures

Place Temperature

Stations

Nearby Weather Stations

Station Location Temp. Windchill Dew Point Humidity Wind Precip. Elev Updated Type
                   

Watches & Warnings

There are currently no watches in effect.